Time;durP1;ratioP1;P1;durP2;ratioP2;P2;SDS_P1;SDS_P2;PMS_P1;PMS_P2;Temp;Humidity;BMP_temperature;BMP_pressure;BME280_temperature;BME280_humidity;BME280_pressure;Samples;Min_cycle;Max_cycle;Signal;HPM_P1;HPM_P2
2022/03/08 00:00:10;;;;;;;;;;;;;;;14.48;46.45;102097.25;1023481;29;682;-67
2022/03/08 00:01:00;;;;;;;;;;;;;;;14.46;45.86;102091.97;1025287;28;672;-67
2022/03/08 00:01:51;;;;;;;;;;;;;;;14.47;45.90;102098.19;1025086;28;1903;-67
2022/03/08 00:02:41;;;;;;;;;;;;;;;14.48;45.53;102097.25;1020073;29;1421;-67
2022/03/08 00:03:32;;;;;;;;;;;;;;;14.46;46.03;102091.09;1021761;28;677;-68
2022/03/08 00:04:24;;;;;;;;;;;;;;;14.45;45.80;102090.25;1022179;29;1611;-67
2022/03/08 00:05:14;;;;;;;;;;;;;;;14.45;45.76;102089.38;1024177;29;697;-67
2022/03/08 00:06:05;;;;;;;;;;;;;;;14.43;45.86;102091.28;1025152;29;760;-67
2022/03/08 00:06:55;;;;;;;;;;;;;;;14.42;46.51;102087.75;1023561;29;674;-68
2022/03/08 00:07:46;;;;;;;;;;;;;;;14.43;46.49;102096.66;1024086;29;706;-69
2022/03/08 00:08:37;;;;;;;;;;;;;;;14.43;45.89;102092.16;1023503;28;702;-70
2022/03/08 00:09:27;;;;;;;;;;;;;;;14.42;46.09;102093.09;1024055;29;663;-69
2022/03/08 00:10:18;;;;;;;;;;;;;;;14.41;45.57;102099.44;1023937;29;616;-70
2022/03/08 00:11:09;;;;;;;;;;;;;;;14.40;45.90;102095.03;1024031;29;665;-69
2022/03/08 00:11:59;;;;;;;;;;;;;;;14.40;46.58;102099.47;1023725;29;647;-69
2022/03/08 00:12:50;;;;;;;;;;;;;;;14.38;45.88;102088.84;1020576;29;694;-69
2022/03/08 00:13:40;;;;;;;;;;;;;;;14.39;46.11;102087.91;1021736;28;630;-70
2022/03/08 00:14:33;;;;;;;;;;;;;;;14.40;45.83;102094.13;1021036;29;696;-70
2022/03/08 00:15:24;;;;;;;;;;;;;;;14.39;45.84;102092.41;1019883;29;622;-70
2022/03/08 00:16:14;;;;;;;;;;;;;;;14.41;45.86;102093.19;1020125;29;671;-70
2022/03/08 00:17:05;;;;;;;;;;;;;;;14.40;45.60;102091.44;1019818;29;698;-69
2022/03/08 00:17:55;;;;;;;;;;;;;;;14.38;45.91;102087.97;1020125;29;697;-69
2022/03/08 00:18:48;;;;;;;;;;;;;;;14.38;46.20;102087.97;1020062;29;762;-69
2022/03/08 00:19:39;;;;;;;;;;;;;;;14.37;46.18;102088.94;1020039;29;627;-69
2022/03/08 00:20:30;;;;;;;;;;;;;;;14.38;45.98;102082.63;1020003;29;666;-69
2022/03/08 00:21:21;;;;;;;;;;;;;;;14.36;46.00;102085.41;1019993;29;698;-68
2022/03/08 00:22:12;;;;;;;;;;;;;;;14.39;45.97;102087.03;1019848;29;1903;-69
2022/03/08 00:23:03;;;;;;;;;;;;;;;14.38;45.75;102086.16;1021239;29;634;-69
2022/03/08 00:23:53;;;;;;;;;;;;;;;14.38;45.89;102083.47;1019458;29;595;-69
2022/03/08 00:24:43;;;;;;;;;;;;;;;14.37;46.06;102078.22;1019750;29;635;-69
2022/03/08 00:25:35;;;;;;;;;;;;;;;14.35;45.63;102080.13;1019829;29;638;-69
2022/03/08 00:26:25;;;;;;;;;;;;;;;14.34;45.83;102081.06;1020045;29;616;-69
2022/03/08 00:27:16;;;;;;;;;;;;;;;14.32;46.00;102083.88;1021142;29;765;-69
2022/03/08 00:28:06;;;;;;;;;;;;;;;14.33;45.72;102082.06;1020039;29;636;-68
2022/03/08 00:28:56;;;;;;;;;;;;;;;14.34;46.26;102081.06;1020073;29;659;-69
2022/03/08 00:29:47;;;;;;;;;;;;;;;14.32;46.36;102083.00;1019881;29;612;-69
2022/03/08 00:30:38;;;;;;;;;;;;;;;14.32;46.31;102080.34;1019999;29;710;-67
2022/03/08 00:31:29;;;;;;;;;;;;;;;14.32;46.42;102083.00;1020248;29;635;-69
2022/03/08 00:32:19;;;;;;;;;;;;;;;14.30;46.50;102080.44;1020549;29;1758;-67
2022/03/08 00:33:09;;;;;;;;;;;;;;;14.30;46.13;102085.78;1021789;28;706;-70
2022/03/08 00:34:00;;;;;;;;;;;;;;;14.31;45.81;102083.97;1022254;28;646;-67
2022/03/08 00:34:50;;;;;;;;;;;;;;;14.30;46.31;102083.09;1020050;29;678;-67
2022/03/08 00:35:41;;;;;;;;;;;;;;;14.30;45.77;102080.44;1019909;29;644;-67
2022/03/08 00:36:31;;;;;;;;;;;;;;;14.31;46.23;102086.66;1019943;29;725;-67
2022/03/08 00:37:22;;;;;;;;;;;;;;;14.32;46.45;102083.88;1022249;28;763;-67
2022/03/08 00:38:12;;;;;;;;;;;;;;;14.32;46.19;102083.88;1019930;29;683;-68
2022/03/08 00:39:03;;;;;;;;;;;;;;;14.30;45.86;102076.88;1021621;28;673;-67
2022/03/08 00:39:53;;;;;;;;;;;;;;;14.30;45.83;102085.78;1019917;29;635;-67
2022/03/08 00:40:43;;;;;;;;;;;;;;;14.29;46.12;102081.38;1020041;29;732;-67
2022/03/08 00:41:34;;;;;;;;;;;;;;;14.29;46.74;102085.88;1019833;29;639;-68
2022/03/08 00:42:24;;;;;;;;;;;;;;;14.28;45.81;102093.06;1022368;28;1575;-67
2022/03/08 00:43:15;;;;;;;;;;;;;;;14.29;46.32;102083.19;1023176;29;611;-67
2022/03/08 00:44:05;;;;;;;;;;;;;;;14.28;46.74;102082.34;1024970;28;595;-69
2022/03/08 00:44:55;;;;;;;;;;;;;;;14.27;46.68;102087.78;1025014;28;614;-68
2022/03/08 00:45:46;;;;;;;;;;;;;;;14.28;46.66;102084.16;1025085;28;603;-68
2022/03/08 00:46:36;;;;;;;;;;;;;;;14.28;46.57;102084.16;1024936;28;657;-68
2022/03/08 00:47:27;;;;;;;;;;;;;;;14.24;46.90;102075.44;1023181;29;686;-68
2022/03/08 00:48:17;;;;;;;;;;;;;;;14.24;46.57;102081.66;1023270;29;715;-68
2022/03/08 00:49:08;;;;;;;;;;;;;;;14.26;46.66;102078.88;1023631;29;688;-68
2022/03/08 00:49:58;;;;;;;;;;;;;;;14.23;46.70;102079.94;1023306;29;556;-68
2022/03/08 00:50:48;;;;;;;;;;;;;;;14.23;46.29;102073.69;1024185;29;642;-69
2022/03/08 00:51:39;;;;;;;;;;;;;;;14.23;45.97;102073.69;1025294;28;630;-69
2022/03/08 00:52:29;;;;;;;;;;;;;;;14.24;45.89;102076.28;1024790;28;1610;-69
2022/03/08 00:53:20;;;;;;;;;;;;;;;14.25;46.47;102069.09;1024065;29;619;-68
2022/03/08 00:54:10;;;;;;;;;;;;;;;14.23;46.57;102069.19;1023591;29;642;-68
2022/03/08 00:55:00;;;;;;;;;;;;;;;14.23;46.04;102074.56;1024676;29;685;-69
2022/03/08 00:55:51;;;;;;;;;;;;;;;14.24;45.96;102067.38;1024898;29;743;-69
2022/03/08 00:56:41;;;;;;;;;;;;;;;14.23;46.49;102065.66;1023351;29;1042;-69
2022/03/08 00:57:32;;;;;;;;;;;;;;;14.22;46.77;102062.09;1024270;29;670;-69
2022/03/08 00:58:22;;;;;;;;;;;;;;;14.23;45.93;102071.00;1023923;29;685;-69
2022/03/08 00:59:13;;;;;;;;;;;;;;;14.21;46.62;102068.44;1023614;29;650;-69
2022/03/08 01:00:03;;;;;;;;;;;;;;;14.20;46.87;102066.69;1023795;29;647;-69
2022/03/08 01:00:53;;;;;;;;;;;;;;;14.19;46.08;102062.28;1023896;29;725;-68
2022/03/08 01:01:44;;;;;;;;;;;;;;;14.20;46.38;102064.00;1023733;29;588;-69
2022/03/08 01:02:34;;;;;;;;;;;;;;;14.19;45.88;102067.66;1023049;29;1594;-68
2022/03/08 01:03:25;;;;;;;;;;;;;;;14.19;46.68;102062.28;1024964;28;622;-69
2022/03/08 01:04:15;;;;;;;;;;;;;;;14.18;46.89;102063.25;1023139;29;1629;-69
2022/03/08 01:05:05;;;;;;;;;;;;;;;14.17;46.30;102058.84;1019465;29;693;-69
2022/03/08 01:05:56;;;;;;;;;;;;;;;14.18;45.89;102065.06;1020359;29;714;-69
2022/03/08 01:06:46;;;;;;;;;;;;;;;14.18;46.55;102059.69;1019845;29;786;-69
2022/03/08 01:07:37;;;;;;;;;;;;;;;14.17;46.50;102060.66;1021390;29;690;-69
2022/03/08 01:08:27;;;;;;;;;;;;;;;14.17;46.29;102058.84;1023460;29;701;-68
2022/03/08 01:09:17;;;;;;;;;;;;;;;14.15;46.91;102054.56;1025096;28;669;-68
2022/03/08 01:10:08;;;;;;;;;;;;;;;14.13;46.47;102051.97;1019902;29;647;-69
2022/03/08 01:10:58;;;;;;;;;;;;;;;14.14;46.67;102053.69;1019920;29;626;-68
2022/03/08 01:11:49;;;;;;;;;;;;;;;14.12;46.61;102055.59;1020068;29;740;-69
2022/03/08 01:12:39;;;;;;;;;;;;;;;14.12;46.49;102058.28;1023898;29;1602;-68
2022/03/08 01:13:29;;;;;;;;;;;;;;;14.12;46.69;102050.22;1024879;28;617;-69
2022/03/08 01:14:20;;;;;;;;;;;;;;;14.13;46.60;102045.72;1024998;28;622;-69
2022/03/08 01:15:10;;;;;;;;;;;;;;;14.12;46.86;102052.06;1023438;29;729;-69
2022/03/08 01:16:01;;;;;;;;;;;;;;;14.11;46.70;102047.63;1023152;29;670;-68
2022/03/08 01:16:51;;;;;;;;;;;;;;;14.10;46.46;102046.78;1023266;29;619;-68
2022/03/08 01:17:42;;;;;;;;;;;;;;;14.13;46.15;102049.28;1023395;29;665;-69
2022/03/08 01:18:32;;;;;;;;;;;;;;;14.12;46.57;102052.91;1023049;29;1104;-67
2022/03/08 01:19:22;;;;;;;;;;;;;;;14.12;46.76;102055.59;1024465;28;669;-67
2022/03/08 01:20:13;;;;;;;;;;;;;;;14.10;46.49;102052.13;1022819;29;682;-68
2022/03/08 01:21:03;;;;;;;;;;;;;;;14.10;46.65;102048.59;1023247;29;678;-68
2022/03/08 01:21:54;;;;;;;;;;;;;;;14.11;46.63;102051.19;1023445;29;1914;-68
2022/03/08 01:22:44;;;;;;;;;;;;;;;14.10;46.35;102052.13;1024636;28;1658;-68
2022/03/08 01:23:35;;;;;;;;;;;;;;;14.10;46.00;102044.09;1023819;29;575;-68
2022/03/08 01:24:25;;;;;;;;;;;;;;;14.07;46.73;102046.97;1023685;29;619;-68
2022/03/08 01:25:15;;;;;;;;;;;;;;;14.08;46.50;102042.47;1019889;29;1176;-67
2022/03/08 01:26:06;;;;;;;;;;;;;;;14.08;46.95;102043.31;1019686;29;634;-67
2022/03/08 01:26:56;;;;;;;;;;;;;;;14.07;46.46;102041.59;1020911;29;642;-68
2022/03/08 01:27:47;;;;;;;;;;;;;;;14.07;46.87;102041.59;1021138;29;673;-68
2022/03/08 01:28:37;;;;;;;;;;;;;;;14.07;46.71;102041.59;1020607;29;642;-68
2022/03/08 01:29:28;;;;;;;;;;;;;;;14.06;46.15;102045.22;1020489;29;658;-68
2022/03/08 01:30:18;;;;;;;;;;;;;;;14.07;46.84;102040.72;1019931;29;667;-68
2022/03/08 01:31:08;;;;;;;;;;;;;;;14.05;46.12;102046.19;1020093;29;709;-68
2022/03/08 01:31:59;;;;;;;;;;;;;;;14.05;46.65;102040.81;1019660;29;663;-68
2022/03/08 01:32:49;;;;;;;;;;;;;;;14.04;46.13;102039.09;1022976;29;1610;-68
2022/03/08 01:33:40;;;;;;;;;;;;;;;14.06;46.34;102041.69;1024002;29;690;-68
2022/03/08 01:34:30;;;;;;;;;;;;;;;14.05;46.06;102043.50;1023748;29;622;-68
2022/03/08 01:35:20;;;;;;;;;;;;;;;14.05;46.40;102046.19;1023379;29;659;-68
2022/03/08 01:36:11;;;;;;;;;;;;;;;14.05;46.12;102043.50;1023601;29;638;-68
2022/03/08 01:37:01;;;;;;;;;;;;;;;14.07;46.26;102044.28;1023839;29;658;-68
2022/03/08 01:37:52;;;;;;;;;;;;;;;14.04;46.99;102041.78;1024252;29;670;-68
2022/03/08 01:38:42;;;;;;;;;;;;;;;14.05;46.26;102043.50;1023708;29;678;-68
2022/03/08 01:39:33;;;;;;;;;;;;;;;14.05;46.09;102042.63;1023431;29;622;-68
2022/03/08 01:40:23;;;;;;;;;;;;;;;14.04;46.02;102035.56;1023114;29;630;-68
2022/03/08 01:41:13;;;;;;;;;;;;;;;14.02;46.27;102037.47;1023852;29;647;-68
2022/03/08 01:42:04;;;;;;;;;;;;;;;14.01;46.50;102039.28;1023607;29;1890;-68
2022/03/08 01:42:54;;;;;;;;;;;;;;;14.01;46.11;102038.41;1022929;29;1654;-68
2022/03/08 01:43:48;;;;;;;;;;;;;;;14.01;46.77;102033.06;1023491;29;690;-68
2022/03/08 01:44:38;;;;;;;;;;;;;;;14.02;46.75;102037.47;1023180;29;622;-69
2022/03/08 01:45:29;;;;;;;;;;;;;;;14.01;46.38;102031.25;1023458;29;663;-69
2022/03/08 01:46:19;;;;;;;;;;;;;;;14.01;46.01;102025.00;1023215;29;686;-67
2022/03/08 01:47:10;;;;;;;;;;;;;;;14.00;46.81;102028.66;1023383;29;674;-68
2022/03/08 01:48:00;;;;;;;;;;;;;;;14.00;46.33;102028.66;1023161;29;658;-68
2022/03/08 01:48:50;;;;;;;;;;;;;;;13.98;46.95;102026.06;1022895;29;721;-68
2022/03/08 01:49:41;;;;;;;;;;;;;;;13.98;46.91;102025.19;1024291;29;670;-67
2022/03/08 01:50:31;;;;;;;;;;;;;;;13.96;46.65;102022.63;1023150;29;642;-67
2022/03/08 01:51:22;;;;;;;;;;;;;;;13.96;47.11;102022.63;1023423;29;713;-67
2022/03/08 01:52:13;;;;;;;;;;;;;;;14.00;46.20;102021.47;1023444;29;713;-67
2022/03/08 01:53:03;;;;;;;;;;;;;;;13.99;46.48;102022.44;1020906;29;717;-67
2022/03/08 01:53:54;;;;;;;;;;;;;;;13.99;46.86;102022.44;1020291;29;725;-67
2022/03/08 01:54:44;;;;;;;;;;;;;;;13.99;46.36;102013.53;1020426;29;701;-67
2022/03/08 01:55:35;;;;;;;;;;;;;;;13.98;46.91;102019.84;1020337;29;654;-68
2022/03/08 01:56:25;;;;;;;;;;;;;;;13.95;46.25;102015.53;1021471;28;627;-68
2022/03/08 01:57:16;;;;;;;;;;;;;;;13.95;46.26;102018.22;1020412;29;654;-69
2022/03/08 01:58:06;;;;;;;;;;;;;;;13.94;46.91;102011.13;1020271;29;648;-68
2022/03/08 01:58:56;;;;;;;;;;;;;;;13.96;47.00;102011.91;1025145;28;719;-68
2022/03/08 01:59:47;;;;;;;;;;;;;;;13.95;46.36;102015.53;1023953;29;697;-68
2022/03/08 02:00:37;;;;;;;;;;;;;;;13.96;46.21;102011.91;1020437;29;615;-68
2022/03/08 02:01:28;;;;;;;;;;;;;;;13.95;46.40;102002.16;1020417;29;745;-69
2022/03/08 02:02:18;;;;;;;;;;;;;;;13.96;46.17;102011.06;1021391;28;1906;-68
2022/03/08 02:03:08;;;;;;;;;;;;;;;13.95;46.50;102003.97;1019975;29;682;-68
2022/03/08 02:03:59;;;;;;;;;;;;;;;13.94;46.77;102000.41;1019727;29;654;-68
2022/03/08 02:04:49;;;;;;;;;;;;;;;13.94;46.30;102008.47;1022718;29;1654;-68
2022/03/08 02:05:40;;;;;;;;;;;;;;;13.95;46.63;102004.81;1023351;29;654;-68
2022/03/08 02:06:31;;;;;;;;;;;;;;;13.96;45.93;102005.69;1023510;29;603;-68
2022/03/08 02:07:21;;;;;;;;;;;;;;;13.95;46.45;102004.81;1024587;29;686;-68
2022/03/08 02:08:12;;;;;;;;;;;;;;;13.94;47.04;102012.97;1024844;29;701;-68
2022/03/08 02:09:02;;;;;;;;;;;;;;;13.93;46.99;102009.41;1023642;29;657;-68
2022/03/08 02:09:53;;;;;;;;;;;;;;;13.91;46.68;102005.97;1023778;29;958;-68
2022/03/08 02:10:43;;;;;;;;;;;;;;;13.91;46.68;102005.97;1023662;29;631;-68
2022/03/08 02:11:33;;;;;;;;;;;;;;;13.88;46.31;102000.78;1023815;29;607;-68
2022/03/08 02:12:24;;;;;;;;;;;;;;;13.87;46.93;102007.09;1023448;29;638;-68
2022/03/08 02:13:14;;;;;;;;;;;;;;;13.88;46.83;101998.97;1020303;29;863;-68
2022/03/08 02:14:05;;;;;;;;;;;;;;;13.87;47.09;101999.06;1021330;28;700;-68
2022/03/08 02:14:55;;;;;;;;;;;;;;;13.86;46.99;101991.97;1021435;28;704;-68
2022/03/08 02:15:45;;;;;;;;;;;;;;;13.87;47.08;101996.38;1019773;29;682;-69
2022/03/08 02:16:36;;;;;;;;;;;;;;;13.87;46.21;101991.00;1020841;29;642;-68
2022/03/08 02:17:26;;;;;;;;;;;;;;;13.87;46.34;101994.56;1020956;28;705;-68
2022/03/08 02:18:17;;;;;;;;;;;;;;;13.87;46.46;101989.19;1019669;29;1121;-68
2022/03/08 02:19:07;;;;;;;;;;;;;;;13.87;46.73;101996.38;1021317;28;618;-68
2022/03/08 02:19:57;;;;;;;;;;;;;;;13.85;46.92;101983.06;1019788;29;671;-68
2022/03/08 02:20:48;;;;;;;;;;;;;;;13.83;46.73;101987.66;1021497;28;724;-70
2022/03/08 02:21:38;;;;;;;;;;;;;;;13.84;46.81;101985.84;1021393;28;622;-70
2022/03/08 02:22:29;;;;;;;;;;;;;;;13.83;46.94;101982.28;1019535;29;643;-70
2022/03/08 02:23:19;;;;;;;;;;;;;;;13.85;46.88;101991.09;1022659;29;1447;-71
2022/03/08 02:24:10;;;;;;;;;;;;;;;13.83;46.66;101984.97;1023766;29;627;-70
2022/03/08 02:25:01;;;;;;;;;;;;;;;13.84;46.66;101984.03;1021407;29;1211;-70
2022/03/08 02:25:52;;;;;;;;;;;;;;;13.84;47.08;101981.34;1022036;29;1699;-70
2022/03/08 02:26:42;;;;;;;;;;;;;;;13.83;46.71;101984.09;1023098;29;615;-70
2022/03/08 02:27:33;;;;;;;;;;;;;;;13.83;46.09;101979.63;1023362;29;552;-70
2022/03/08 02:28:23;;;;;;;;;;;;;;;13.84;46.75;101981.34;1023030;29;650;-69
2022/03/08 02:29:13;;;;;;;;;;;;;;;13.84;46.29;101975.13;1023202;29;623;-70
2022/03/08 02:30:04;;;;;;;;;;;;;;;13.84;47.03;101977.81;1023328;29;630;-71
2022/03/08 02:30:54;;;;;;;;;;;;;;;13.85;46.24;101976.84;1023085;29;668;-71
2022/03/08 02:31:47;;;;;;;;;;;;;;;13.84;46.97;101972.44;1023412;28;682;-71
2022/03/08 02:32:38;;;;;;;;;;;;;;;13.81;46.42;101976.16;1023865;29;1610;-71
2022/03/08 02:33:28;;;;;;;;;;;;;;;13.81;46.63;101978.84;1021550;29;599;-71
2022/03/08 02:34:18;;;;;;;;;;;;;;;13.83;46.25;101978.75;1020989;29;600;-71
2022/03/08 02:35:09;;;;;;;;;;;;;;;13.81;46.52;101972.63;1022241;28;555;-71
2022/03/08 02:35:59;;;;;;;;;;;;;;;13.82;46.77;101974.34;1025836;28;622;-71
2022/03/08 02:36:50;;;;;;;;;;;;;;;13.82;46.52;101979.72;1025751;28;679;-71
2022/03/08 02:37:40;;;;;;;;;;;;;;;13.80;47.16;101973.56;1020821;29;685;-71
2022/03/08 02:38:30;;;;;;;;;;;;;;;13.81;47.18;101969.94;1021165;29;685;-71
2022/03/08 02:39:21;;;;;;;;;;;;;;;13.80;46.73;101973.56;1022219;28;685;-71
2022/03/08 02:40:11;;;;;;;;;;;;;;;13.79;46.70;101972.72;1020902;29;619;-71
2022/03/08 02:41:02;;;;;;;;;;;;;;;13.80;46.20;101971.75;1021003;29;658;-70
2022/03/08 02:41:53;;;;;;;;;;;;;;;13.78;47.00;101971.03;1022029;28;1895;-68
2022/03/08 02:42:43;;;;;;;;;;;;;;;13.77;47.05;101968.44;1021383;29;1599;-69
2022/03/08 02:43:33;;;;;;;;;;;;;;;13.77;46.60;101969.28;1023918;29;667;-69
2022/03/08 02:44:24;;;;;;;;;;;;;;;13.78;46.40;101964.78;1025498;28;619;-69
2022/03/08 02:45:16;;;;;;;;;;;;;;;13.77;46.60;101966.63;1024076;29;692;-69
2022/03/08 02:46:06;;;;;;;;;;;;;;;13.77;46.43;101968.44;1023699;29;685;-69
2022/03/08 02:46:57;;;;;;;;;;;;;;;13.77;47.03;101973.78;1023912;29;685;-69
2022/03/08 02:47:47;;;;;;;;;;;;;;;13.76;46.81;101972.06;1023814;29;606;-69
2022/03/08 02:48:38;;;;;;;;;;;;;;;13.77;47.14;101971.97;1024038;29;555;-69
2022/03/08 02:49:28;;;;;;;;;;;;;;;13.76;46.27;101966.69;1025387;28;606;-68
2022/03/08 02:50:18;;;;;;;;;;;;;;;13.75;46.33;101965.84;1025209;29;681;-68
2022/03/08 02:51:09;;;;;;;;;;;;;;;13.74;46.48;101968.59;1025165;29;594;-69
2022/03/08 02:51:59;;;;;;;;;;;;;;;13.73;46.29;101967.75;1025411;29;697;-69
2022/03/08 02:52:51;;;;;;;;;;;;;;;13.74;46.97;101964.13;1023762;29;1590;-69
2022/03/08 02:53:41;;;;;;;;;;;;;;;13.73;47.34;101957.03;1024308;29;631;-69
2022/03/08 02:54:32;;;;;;;;;;;;;;;13.73;47.15;101966.88;1024515;29;643;-69
2022/03/08 02:55:22;;;;;;;;;;;;;;;13.70;47.11;101959.88;1024241;29;655;-69
2022/03/08 02:56:13;;;;;;;;;;;;;;;13.73;46.59;101966.88;1024418;29;649;-68
2022/03/08 02:57:03;;;;;;;;;;;;;;;13.71;46.42;101963.44;1024325;29;633;-68
2022/03/08 02:57:53;;;;;;;;;;;;;;;13.71;46.79;101964.28;1024295;29;619;-68
2022/03/08 02:58:45;;;;;;;;;;;;;;;13.70;47.25;101965.25;1024248;29;694;-68
2022/03/08 02:59:36;;;;;;;;;;;;;;;13.71;47.06;101963.44;1023925;29;646;-68
2022/03/08 03:00:26;;;;;;;;;;;;;;;13.72;46.75;101962.47;1023723;29;643;-67
2022/03/08 03:01:17;;;;;;;;;;;;;;;13.72;46.39;101965.16;1023970;29;775;-68
2022/03/08 03:02:07;;;;;;;;;;;;;;;13.72;46.45;101960.66;1023826;29;1970;-68
2022/03/08 03:02:57;;;;;;;;;;;;;;;13.70;46.92;101959.03;1024391;29;703;-68
2022/03/08 03:03:48;;;;;;;;;;;;;;;13.69;46.54;101954.63;1024426;29;694;-68
2022/03/08 03:04:38;;;;;;;;;;;;;;;13.69;46.92;101954.63;1024073;29;690;-68
2022/03/08 03:05:29;;;;;;;;;;;;;;;13.70;47.11;101956.34;1025195;29;685;-68
2022/03/08 03:06:19;;;;;;;;;;;;;;;13.69;47.40;101954.63;1024201;29;626;-68
2022/03/08 03:07:10;;;;;;;;;;;;;;;13.66;46.43;101954.78;1024390;29;705;-68
2022/03/08 03:08:00;;;;;;;;;;;;;;;13.68;47.06;101944.84;1023684;29;686;-68
2022/03/08 03:08:50;;;;;;;;;;;;;;;13.66;47.04;101938.72;1024360;29;792;-68
2022/03/08 03:09:41;;;;;;;;;;;;;;;13.67;47.41;101953.84;1025490;29;661;-68
2022/03/08 03:10:31;;;;;;;;;;;;;;;13.65;47.46;101945.03;1024302;29;670;-69
2022/03/08 03:11:22;;;;;;;;;;;;;;;13.66;46.34;101949.44;1024215;29;670;-68
2022/03/08 03:12:12;;;;;;;;;;;;;;;13.65;46.88;101942.34;1023832;29;1705;-69
2022/03/08 03:13:03;;;;;;;;;;;;;;;13.64;46.49;101941.50;1023917;29;635;-69
2022/03/08 03:13:53;;;;;;;;;;;;;;;13.64;46.63;101932.59;1025261;28;1587;-69
2022/03/08 03:14:44;;;;;;;;;;;;;;;13.62;46.81;101938.03;1023905;29;673;-68
2022/03/08 03:15:34;;;;;;;;;;;;;;;13.61;47.02;101940.84;1023248;29;595;-68
2022/03/08 03:16:25;;;;;;;;;;;;;;;13.63;46.61;101937.09;1025364;28;987;-68
2022/03/08 03:17:17;;;;;;;;;;;;;;;13.63;47.16;101941.59;1023496;29;685;-68
2022/03/08 03:18:07;;;;;;;;;;;;;;;13.63;47.23;101938.91;1025333;28;677;-69
2022/03/08 03:18:58;;;;;;;;;;;;;;;13.64;46.74;101940.63;1022715;28;1236;-69
2022/03/08 03:19:48;;;;;;;;;;;;;;;13.63;46.81;101938.91;1020782;29;658;-68
2022/03/08 03:20:38;;;;;;;;;;;;;;;13.64;46.76;101941.50;1021405;29;662;-68
2022/03/08 03:21:29;;;;;;;;;;;;;;;13.63;46.45;101945.13;1020004;29;722;-69
2022/03/08 03:22:19;;;;;;;;;;;;;;;13.64;46.89;101941.50;1020214;29;1911;-69
2022/03/08 03:23:10;;;;;;;;;;;;;;;13.64;47.08;101940.63;1021224;29;1252;-69
2022/03/08 03:24:00;;;;;;;;;;;;;;;13.62;46.43;101940.72;1021446;29;686;-69
2022/03/08 03:24:50;;;;;;;;;;;;;;;13.61;46.96;101939.03;1021830;29;1179;-69
2022/03/08 03:25:41;;;;;;;;;;;;;;;13.62;47.36;101943.41;1024925;29;693;-69
2022/03/08 03:26:31;;;;;;;;;;;;;;;13.61;46.50;101946.19;1024749;29;693;-69
2022/03/08 03:27:22;;;;;;;;;;;;;;;13.63;47.36;101945.13;1023834;29;694;-69
2022/03/08 03:28:12;;;;;;;;;;;;;;;13.60;47.32;101950.69;1024740;29;617;-69
2022/03/08 03:29:02;;;;;;;;;;;;;;;13.60;46.41;101936.44;1024861;29;658;-68
2022/03/08 03:29:53;;;;;;;;;;;;;;;13.60;46.63;101939.97;1024254;29;607;-69
2022/03/08 03:30:43;;;;;;;;;;;;;;;13.58;47.40;101941.03;1023872;29;634;-69
2022/03/08 03:31:34;;;;;;;;;;;;;;;13.57;46.90;101939.28;1024513;29;701;-68
2022/03/08 03:32:24;;;;;;;;;;;;;;;13.55;47.05;101937.56;1022206;28;638;-68
2022/03/08 03:33:15;;;;;;;;;;;;;;;13.57;46.98;101939.28;1020112;29;741;-69
2022/03/08 03:34:05;;;;;;;;;;;;;;;13.56;46.96;101943.78;1020147;29;616;-69
2022/03/08 03:34:55;;;;;;;;;;;;;;;13.55;46.65;101942.94;1020187;29;676;-68
2022/03/08 03:35:46;;;;;;;;;;;;;;;13.56;46.79;101943.78;1020385;29;662;-68
2022/03/08 03:36:36;;;;;;;;;;;;;;;13.54;46.60;101941.19;1021887;28;776;-68
2022/03/08 03:37:27;;;;;;;;;;;;;;;13.55;47.29;101940.25;1021430;29;673;-68
2022/03/08 03:38:17;;;;;;;;;;;;;;;13.54;46.46;101941.19;1020412;29;697;-68
2022/03/08 03:39:07;;;;;;;;;;;;;;;13.54;46.64;101934.97;1021822;29;631;-69
2022/03/08 03:39:58;;;;;;;;;;;;;;;13.53;46.68;101944.81;1021260;29;613;-68
2022/03/08 03:40:48;;;;;;;;;;;;;;;13.54;46.92;101934.97;1020163;29;651;-68
2022/03/08 03:41:39;;;;;;;;;;;;;;;13.52;46.94;101940.41;1021880;28;759;-68
2022/03/08 03:42:29;;;;;;;;;;;;;;;13.52;46.53;101936.88;1020689;29;694;-67
2022/03/08 03:43:20;;;;;;;;;;;;;;;13.50;47.40;101939.66;1021353;28;724;-67
2022/03/08 03:44:10;;;;;;;;;;;;;;;13.52;47.25;101939.56;1020134;29;683;-67
2022/03/08 03:45:01;;;;;;;;;;;;;;;13.52;46.38;101935.06;1021844;28;661;-68
2022/03/08 03:45:51;;;;;;;;;;;;;;;13.51;47.27;101941.38;1022001;28;731;-68
2022/03/08 03:46:42;;;;;;;;;;;;;;;13.50;46.46;101938.78;1021866;28;636;-67
2022/03/08 03:47:32;;;;;;;;;;;;;;;13.50;46.75;101931.63;1020007;29;615;-68
2022/03/08 03:48:22;;;;;;;;;;;;;;;13.52;46.60;101937.75;1020118;29;595;-67
2022/03/08 03:49:14;;;;;;;;;;;;;;;13.52;46.30;101932.41;1021844;28;668;-67
2022/03/08 03:50:04;;;;;;;;;;;;;;;13.49;47.29;101935.25;1021760;28;706;-67
2022/03/08 03:50:55;;;;;;;;;;;;;;;13.49;46.59;101937.94;1021015;29;678;-67
2022/03/08 03:51:47;;;;;;;;;;;;;;;13.48;47.00;101929.97;1020852;29;767;-67
2022/03/08 03:52:37;;;;;;;;;;;;;;;13.48;46.48;101935.34;1021256;29;591;-67
2022/03/08 03:53:27;;;;;;;;;;;;;;;13.48;47.01;101936.19;1019945;29;731;-67
2022/03/08 03:54:18;;;;;;;;;;;;;;;13.47;47.21;101936.28;1020906;29;602;-67
2022/03/08 03:55:08;;;;;;;;;;;;;;;13.46;47.19;101932.75;1020576;29;666;-66
2022/03/08 03:55:59;;;;;;;;;;;;;;;13.49;46.18;101931.72;1020748;29;623;-67
2022/03/08 03:56:49;;;;;;;;;;;;;;;13.49;46.18;101932.56;1020627;29;631;-66
2022/03/08 03:57:40;;;;;;;;;;;;;;;13.48;46.98;101930.84;1021220;29;684;-66
2022/03/08 03:58:30;;;;;;;;;;;;;;;13.49;46.39;101932.56;1020723;29;698;-67
2022/03/08 03:59:20;;;;;;;;;;;;;;;13.49;46.85;101929.03;1020159;29;630;-66
2022/03/08 04:00:11;;;;;;;;;;;;;;;13.49;46.37;101931.72;1020645;29;842;-66
2022/03/08 04:01:01;;;;;;;;;;;;;;;13.47;46.16;101929.13;1021204;29;647;-66
2022/03/08 04:01:52;;;;;;;;;;;;;;;13.47;47.05;101923.75;1021346;29;713;-66
2022/03/08 04:02:42;;;;;;;;;;;;;;;13.48;46.29;101930.84;1020551;29;690;-67
2022/03/08 04:03:32;;;;;;;;;;;;;;;13.46;46.25;101930.06;1020688;29;676;-66
2022/03/08 04:04:23;;;;;;;;;;;;;;;13.47;46.94;101929.13;1020695;29;694;-67
2022/03/08 04:05:13;;;;;;;;;;;;;;;13.48;46.20;101935.34;1020544;29;694;-68
2022/03/08 04:06:04;;;;;;;;;;;;;;;13.46;46.44;101935.44;1021228;29;634;-67
2022/03/08 04:06:54;;;;;;;;;;;;;;;13.44;47.00;101934.66;1020575;29;620;-66
2022/03/08 04:07:44;;;;;;;;;;;;;;;13.43;46.53;101938.31;1020725;29;694;-67
2022/03/08 04:08:35;;;;;;;;;;;;;;;13.42;46.70;101933.91;1020650;29;603;-67
2022/03/08 04:09:25;;;;;;;;;;;;;;;13.43;46.37;101934.78;1021103;29;642;-67
2022/03/08 04:10:16;;;;;;;;;;;;;;;13.43;46.95;101932.09;1021216;29;618;-67
2022/03/08 04:11:06;;;;;;;;;;;;;;;13.43;46.48;101932.97;1020575;29;667;-67
2022/03/08 04:11:56;;;;;;;;;;;;;;;13.44;46.75;101931.09;1020726;29;1682;-67
2022/03/08 04:12:47;;;;;;;;;;;;;;;13.42;47.02;101936.59;1020634;29;921;-67
2022/03/08 04:13:37;;;;;;;;;;;;;;;13.42;46.65;101930.38;1019600;29;619;-67
2022/03/08 04:14:28;;;;;;;;;;;;;;;13.41;45.97;101934.84;1021164;29;579;-67
2022/03/08 04:15:18;;;;;;;;;;;;;;;13.42;46.36;101933.91;1021164;29;615;-67
2022/03/08 04:16:10;;;;;;;;;;;;;;;13.41;46.37;101932.19;1021746;28;639;-67
2022/03/08 04:17:02;;;;;;;;;;;;;;;13.40;46.07;101932.28;1020113;29;710;-67
2022/03/08 04:17:52;;;;;;;;;;;;;;;13.38;46.37;101927.00;1019975;29;595;-67
2022/03/08 04:18:43;;;;;;;;;;;;;;;13.39;46.06;101928.72;1019801;29;1199;-67
2022/03/08 04:19:33;;;;;;;;;;;;;;;13.42;46.89;101930.38;1019844;29;686;-68
2022/03/08 04:20:23;;;;;;;;;;;;;;;13.39;46.75;101926.06;1020799;29;734;-68
2022/03/08 04:21:14;;;;;;;;;;;;;;;13.40;46.91;101925.09;1019792;29;737;-68
2022/03/08 04:22:04;;;;;;;;;;;;;;;13.43;45.86;101921.38;1020154;29;1974;-68
2022/03/08 04:22:55;;;;;;;;;;;;;;;13.41;45.94;101924.16;1025046;28;689;-68
2022/03/08 04:23:45;;;;;;;;;;;;;;;13.39;45.81;101923.38;1025178;28;614;-69
2022/03/08 04:24:36;;;;;;;;;;;;;;;13.40;46.73;101918.88;1023541;29;663;-69
2022/03/08 04:25:26;;;;;;;;;;;;;;;13.37;46.68;101922.59;1019959;29;678;-69